createdAt,value
2022-10-21T00:00:40.933Z,7.21
2022-10-21T00:04:04.036Z,7.19
2022-10-21T00:07:06.992Z,7.17
2022-10-21T00:10:10.395Z,7.15
2022-10-21T00:13:13.302Z,7.13
2022-10-21T00:16:18.642Z,7.11
2022-10-21T00:19:21.491Z,7.09
2022-10-21T00:22:24.508Z,7.08
2022-10-21T00:25:27.507Z,7.07
2022-10-21T00:28:30.838Z,7.06
2022-10-21T00:31:34.855Z,7.05
2022-10-21T00:34:37.777Z,7.04
2022-10-21T00:37:40.924Z,7.04
2022-10-21T00:40:43.940Z,7.03
2022-10-21T00:44:14.618Z,7.02
2022-10-21T00:47:22.204Z,7.01
2022-10-21T00:50:38.844Z,7.00
2022-10-21T00:53:48.062Z,6.98
2022-10-21T01:00:02.507Z,6.95
2022-10-21T01:03:05.496Z,6.93
2022-10-21T01:06:11.177Z,6.90
2022-10-21T01:09:15.048Z,6.88
2022-10-21T01:12:30.207Z,6.86
2022-10-21T01:15:42.430Z,6.84
2022-10-21T01:18:59.041Z,6.81
2022-10-21T01:22:04.948Z,6.79
2022-10-21T01:25:22.625Z,6.78
2022-10-21T01:28:31.211Z,6.76
2022-10-21T01:31:47.990Z,6.73
2022-10-21T01:35:13.815Z,6.71
2022-10-21T01:38:42.293Z,6.68
2022-10-21T01:42:00.562Z,6.66
2022-10-21T01:45:27.291Z,6.64
2022-10-21T01:48:38.291Z,6.62
2022-10-21T01:51:42.851Z,6.60
2022-10-21T01:54:52.983Z,6.58
2022-10-21T01:58:03.855Z,6.56
2022-10-21T02:01:10.446Z,6.56
2022-10-21T02:04:16.205Z,6.55
2022-10-21T02:07:21.439Z,6.54
2022-10-21T02:10:28.258Z,6.55
2022-10-21T02:13:36.179Z,6.53
2022-10-21T02:16:41.549Z,6.54
2022-10-21T02:19:44.592Z,6.52
2022-10-21T02:22:49.235Z,6.52
2022-10-21T02:25:52.632Z,6.50
2022-10-21T02:28:58.238Z,6.47
2022-10-21T02:32:23.248Z,6.46
2022-10-21T02:35:46.396Z,6.44
2022-10-21T02:38:54.133Z,6.41
2022-10-21T02:42:00.358Z,6.39
2022-10-21T02:45:04.737Z,6.37
2022-10-21T02:48:07.834Z,6.35
2022-10-21T02:51:11.409Z,6.33
2022-10-21T02:54:20.692Z,6.31
2022-10-21T02:57:23.643Z,6.30
2022-10-21T03:00:30.738Z,6.29
2022-10-21T03:03:35.790Z,6.28
2022-10-21T03:06:38.743Z,6.26
2022-10-21T03:09:41.809Z,6.24
2022-10-21T03:12:44.760Z,6.23
2022-10-21T03:15:49.115Z,6.21
2022-10-21T03:18:52.036Z,6.20
2022-10-21T03:21:54.965Z,6.18
2022-10-21T03:24:57.949Z,6.17
2022-10-21T03:28:00.974Z,6.16
2022-10-21T03:31:03.981Z,6.16
2022-10-21T03:34:06.956Z,6.16
2022-10-21T03:37:10.018Z,6.16
2022-10-21T03:40:13.061Z,6.15
2022-10-21T03:43:16.008Z,6.16
2022-10-21T03:46:19.048Z,6.15
2022-10-21T03:49:22.073Z,6.14
2022-10-21T03:52:25.111Z,6.14
2022-10-21T03:55:28.019Z,6.12
2022-10-21T03:58:31.108Z,6.11
2022-10-21T04:01:34.189Z,6.10
2022-10-21T04:04:37.340Z,6.09
2022-10-21T04:07:40.600Z,6.08
2022-10-21T04:10:45.883Z,6.07
2022-10-21T04:13:49.370Z,6.06
2022-10-21T04:17:02.105Z,6.04
2022-10-21T04:20:06.225Z,6.04
2022-10-21T04:23:09.126Z,6.02
2022-10-21T04:26:12.214Z,6.01
2022-10-21T04:29:15.105Z,6.00
2022-10-21T04:32:18.175Z,6.00
2022-10-21T04:35:21.120Z,6.00
2022-10-21T04:38:27.189Z,6.00
2022-10-21T04:41:30.342Z,6.00
2022-10-21T04:44:33.354Z,6.01
2022-10-21T04:47:36.566Z,6.03
2022-10-21T04:50:39.838Z,6.04
2022-10-21T04:53:42.877Z,6.06
2022-10-21T04:56:45.780Z,6.07
2022-10-21T04:59:48.775Z,6.08
2022-10-21T05:02:51.693Z,6.08
2022-10-21T05:05:54.667Z,6.08
2022-10-21T05:08:57.755Z,6.08
2022-10-21T05:12:00.896Z,6.08
2022-10-21T05:15:04.326Z,6.08
2022-10-21T05:18:07.350Z,6.08
2022-10-21T05:21:10.361Z,6.07
2022-10-21T05:24:14.828Z,6.06
2022-10-21T05:27:17.808Z,6.06
2022-10-21T05:30:21.278Z,6.06
2022-10-21T05:33:24.862Z,6.07
2022-10-21T05:36:27.869Z,6.09
2022-10-21T05:39:30.858Z,6.10
2022-10-21T05:42:34.078Z,6.12
2022-10-21T05:45:37.020Z,6.15
2022-10-21T05:48:40.273Z,6.17
2022-10-21T05:51:44.819Z,6.19
2022-10-21T05:54:47.796Z,6.21
2022-10-21T06:00:55.408Z,6.27
2022-10-21T06:03:58.482Z,6.30
2022-10-21T06:07:01.503Z,6.33
2022-10-21T06:10:04.677Z,6.37
2022-10-21T06:13:07.637Z,6.40
2022-10-21T06:16:12.352Z,6.44
2022-10-21T06:19:15.361Z,6.47
2022-10-21T06:22:18.495Z,6.50
2022-10-21T06:25:21.828Z,6.54
2022-10-21T06:28:25.429Z,6.56
2022-10-21T06:31:29.036Z,6.58
2022-10-21T06:34:32.049Z,6.61
2022-10-21T06:37:35.051Z,6.63
2022-10-21T06:40:38.463Z,6.65
2022-10-21T06:43:42.925Z,6.68
2022-10-21T06:46:46.247Z,6.70
2022-10-21T06:49:49.194Z,6.73
2022-10-21T06:52:52.080Z,6.75
2022-10-21T06:56:09.235Z,6.78
2022-10-21T06:59:12.164Z,6.83
2022-10-21T07:02:15.091Z,6.87
2022-10-21T07:05:18.195Z,6.92
2022-10-21T07:08:22.509Z,6.98
2022-10-21T07:11:32.869Z,7.05
2022-10-21T07:14:35.789Z,7.11
2022-10-21T07:17:38.804Z,7.18
2022-10-21T07:20:41.925Z,7.26
2022-10-21T07:23:46.278Z,7.34
2022-10-21T07:26:49.686Z,7.41
2022-10-21T07:29:52.561Z,7.49
2022-10-21T07:32:55.494Z,7.57
2022-10-21T07:36:07.670Z,7.64
2022-10-21T07:39:17.427Z,7.72
2022-10-21T07:42:21.506Z,7.80
2022-10-21T07:45:24.485Z,7.87
2022-10-21T07:48:27.355Z,7.94
2022-10-21T07:51:31.502Z,7.99
2022-10-21T07:54:37.387Z,8.05
2022-10-21T07:57:41.103Z,8.09
2022-10-21T08:00:44.666Z,8.14
2022-10-21T08:03:48.686Z,8.19
2022-10-21T08:06:51.657Z,8.24
2022-10-21T08:09:54.532Z,8.29
2022-10-21T08:12:57.392Z,8.35
2022-10-21T08:16:01.076Z,8.39
2022-10-21T08:19:06.076Z,8.44
2022-10-21T08:22:09.623Z,8.50
2022-10-21T08:25:16.745Z,8.56
2022-10-21T08:28:20.982Z,8.60
2022-10-21T08:31:24.042Z,8.67
2022-10-21T08:34:26.942Z,8.72
2022-10-21T08:37:29.836Z,8.77
2022-10-21T08:40:44.395Z,8.83
2022-10-21T08:43:47.489Z,8.89
2022-10-21T08:46:58.085Z,8.95
2022-10-21T08:50:12.756Z,8.99
2022-10-21T08:53:23.250Z,9.03
2022-10-21T08:56:26.300Z,9.05
2022-10-21T08:59:29.197Z,9.07
2022-10-21T09:02:34.829Z,9.09
2022-10-21T09:06:08.881Z,9.10
2022-10-21T09:09:44.325Z,9.13
2022-10-21T09:13:13.274Z,9.16
2022-10-21T09:17:12.194Z,9.20
2022-10-21T09:20:51.086Z,9.25
2022-10-21T09:24:36.256Z,9.29
2022-10-21T09:27:54.981Z,9.33
2022-10-21T09:31:02.695Z,9.37
2022-10-21T09:34:15.204Z,9.40
2022-10-21T09:37:31.689Z,9.43
2022-10-21T09:40:37.854Z,9.45
2022-10-21T09:43:40.798Z,9.48
2022-10-21T09:46:47.707Z,9.50
2022-10-21T09:50:07.328Z,9.52
2022-10-21T09:53:20.367Z,9.55
2022-10-21T09:56:30.088Z,9.58
2022-10-21T09:59:33.651Z,9.62
2022-10-21T10:02:40.059Z,9.65
2022-10-21T10:05:49.284Z,9.68
2022-10-21T10:08:52.419Z,9.73
2022-10-21T10:11:58.392Z,9.76
2022-10-21T10:15:39.386Z,9.81
2022-10-21T10:18:44.415Z,9.86
2022-10-21T10:22:10.223Z,9.90
2022-10-21T10:25:13.699Z,9.96
2022-10-21T10:28:24.001Z,10.01
2022-10-21T10:31:34.052Z,10.06
2022-10-21T10:34:48.147Z,10.11
2022-10-21T10:37:53.057Z,10.15
2022-10-21T10:41:05.720Z,10.18
2022-10-21T10:44:18.404Z,10.23
2022-10-21T10:47:26.673Z,10.28
2022-10-21T10:50:43.043Z,10.34
2022-10-21T10:53:45.936Z,10.41
2022-10-21T10:57:03.457Z,10.47
2022-10-21T11:00:14.286Z,10.53
2022-10-21T11:03:29.841Z,10.58
2022-10-21T11:06:43.647Z,10.61
2022-10-21T11:09:49.275Z,10.64
2022-10-21T11:12:52.979Z,10.66
2022-10-21T11:16:14.474Z,10.67
2022-10-21T11:19:34.702Z,10.68
2022-10-21T11:23:02.002Z,10.69
2022-10-21T11:26:27.558Z,10.70
2022-10-21T11:29:46.135Z,10.73
2022-10-21T11:32:58.180Z,10.75
2022-10-21T11:36:11.826Z,10.77
2022-10-21T11:39:30.906Z,10.79
2022-10-21T11:42:43.791Z,10.80
2022-10-21T11:46:01.980Z,10.81
2022-10-21T11:49:22.942Z,10.81
2022-10-21T11:52:37.205Z,10.82
2022-10-21T11:56:00.608Z,10.82
2022-10-21T11:59:18.684Z,10.83
2022-10-21T12:02:25.036Z,10.84
2022-10-21T12:05:36.958Z,10.86
2022-10-21T12:08:51.638Z,10.90
2022-10-21T12:12:00.579Z,10.93
2022-10-21T12:15:14.668Z,10.98
2022-10-21T12:18:22.152Z,11.03
2022-10-21T12:21:28.767Z,11.07
2022-10-21T12:24:34.655Z,11.11
2022-10-21T12:27:58.967Z,11.15
2022-10-21T12:31:17.814Z,11.17
2022-10-21T12:34:21.767Z,11.18
2022-10-21T12:37:57.127Z,11.20
2022-10-21T12:41:21.593Z,11.20
2022-10-21T12:44:27.471Z,11.20
2022-10-21T12:47:40.298Z,11.21
2022-10-21T12:50:45.102Z,11.21
2022-10-21T12:53:52.825Z,11.22
2022-10-21T12:57:04.777Z,11.23
2022-10-21T13:03:41.006Z,11.24
2022-10-21T13:06:56.461Z,11.23
2022-10-21T13:09:59.211Z,11.24
2022-10-21T13:13:30.517Z,11.24
2022-10-21T13:16:40.838Z,11.24
2022-10-21T13:19:43.849Z,11.24
2022-10-21T13:23:02.050Z,11.24
2022-10-21T13:26:19.630Z,11.25
2022-10-21T13:29:29.567Z,11.26
2022-10-21T13:32:37.635Z,11.28
2022-10-21T13:35:46.460Z,11.29
2022-10-21T13:38:52.482Z,11.31
2022-10-21T13:41:58.920Z,11.32
2022-10-21T13:45:08.224Z,11.33
2022-10-21T13:48:18.260Z,11.34
2022-10-21T13:51:27.152Z,11.36
2022-10-21T13:54:35.501Z,11.36
2022-10-21T13:57:38.730Z,11.37
2022-10-21T14:00:41.988Z,11.37
2022-10-21T14:03:45.357Z,11.38
2022-10-21T14:06:57.030Z,11.38
2022-10-21T14:10:00.121Z,11.38
2022-10-21T14:13:04.513Z,11.39
2022-10-21T14:16:08.885Z,11.39
2022-10-21T14:19:21.868Z,11.40
2022-10-21T14:22:26.883Z,11.40
2022-10-21T14:25:32.628Z,11.40
2022-10-21T14:28:37.302Z,11.40
2022-10-21T14:31:44.223Z,11.39
2022-10-21T14:34:58.368Z,11.40
2022-10-21T14:38:03.690Z,11.40
2022-10-21T14:41:11.326Z,11.40
2022-10-21T14:44:19.644Z,11.40
2022-10-21T14:47:25.481Z,11.39
2022-10-21T14:50:28.432Z,11.38
2022-10-21T14:53:35.678Z,11.38
2022-10-21T14:56:42.858Z,11.38
2022-10-21T14:59:50.330Z,11.37
2022-10-21T15:02:54.369Z,11.37
2022-10-21T15:06:25.227Z,11.36
2022-10-21T15:09:28.873Z,11.36
2022-10-21T15:12:50.499Z,11.35
2022-10-21T15:15:55.998Z,11.35
2022-10-21T15:18:59.473Z,11.34
2022-10-21T15:22:04.230Z,11.34
2022-10-21T15:25:16.913Z,11.34
2022-10-21T15:28:20.529Z,11.33
2022-10-21T15:31:26.947Z,11.32
2022-10-21T15:34:32.536Z,11.32
2022-10-21T15:37:35.657Z,11.31
2022-10-21T15:40:38.508Z,11.31
2022-10-21T15:43:43.014Z,11.31
2022-10-21T15:46:47.351Z,11.30
2022-10-21T15:49:50.775Z,11.31
2022-10-21T15:55:56.790Z,11.31
2022-10-21T15:58:59.659Z,11.31
2022-10-21T16:02:02.630Z,11.31
2022-10-21T16:05:05.755Z,11.31
2022-10-21T16:08:12.374Z,11.31
2022-10-21T16:11:29.658Z,11.31
2022-10-21T16:14:42.831Z,11.32
2022-10-21T16:17:49.488Z,11.32
2022-10-21T16:20:54.001Z,11.32
2022-10-21T16:23:58.456Z,11.32
2022-10-21T16:27:01.402Z,11.33
2022-10-21T16:30:24.950Z,11.32
2022-10-21T16:33:27.896Z,11.33
2022-10-21T16:36:36.682Z,11.33
2022-10-21T16:39:39.525Z,11.33
2022-10-21T16:42:42.532Z,11.32
2022-10-21T16:45:45.682Z,11.32
2022-10-21T16:48:48.709Z,11.32
2022-10-21T16:51:57.449Z,11.32
2022-10-21T16:55:00.359Z,11.32
2022-10-21T16:58:03.367Z,11.31
2022-10-21T17:01:08.417Z,11.31
2022-10-21T17:04:14.249Z,11.31
2022-10-21T17:07:17.330Z,11.31
2022-10-21T17:10:20.551Z,11.30
2022-10-21T17:13:23.413Z,11.30
2022-10-21T17:16:26.358Z,11.29
2022-10-21T17:19:29.330Z,11.30
2022-10-21T17:22:32.461Z,11.30
2022-10-21T17:25:35.895Z,11.29
2022-10-21T17:28:38.765Z,11.29
2022-10-21T17:31:43.566Z,11.29
2022-10-21T17:34:46.505Z,11.29
2022-10-21T17:37:50.401Z,11.29
2022-10-21T17:40:53.971Z,11.30
2022-10-21T17:43:57.237Z,11.29
2022-10-21T17:47:00.295Z,11.29
2022-10-21T17:50:03.664Z,11.29
2022-10-21T17:53:07.095Z,11.29
2022-10-21T17:56:11.301Z,11.29
2022-10-21T17:59:14.156Z,11.29
2022-10-21T18:02:17.036Z,11.28
2022-10-21T18:05:20.090Z,11.28
2022-10-21T18:08:24.141Z,11.27
2022-10-21T18:11:26.968Z,11.27
2022-10-21T18:14:29.894Z,11.27
2022-10-21T18:17:33.973Z,11.26
2022-10-21T18:20:36.884Z,11.26
2022-10-21T18:23:43.248Z,11.26
2022-10-21T18:26:46.125Z,11.26
2022-10-21T18:29:49.206Z,11.25
2022-10-21T18:32:52.106Z,11.25
2022-10-21T18:35:54.951Z,11.25
2022-10-21T18:39:01.545Z,11.24
2022-10-21T18:42:07.255Z,11.24
2022-10-21T18:45:10.395Z,11.23
2022-10-21T18:48:13.340Z,11.22
2022-10-21T18:51:17.926Z,11.21
2022-10-21T18:54:20.913Z,11.20
2022-10-21T18:57:24.021Z,11.20
2022-10-21T19:00:27.682Z,11.19
2022-10-21T19:03:30.847Z,11.18
2022-10-21T19:06:43.801Z,11.16
2022-10-21T19:09:47.283Z,11.14
2022-10-21T19:12:52.455Z,11.12
2022-10-21T19:19:14.212Z,11.07
2022-10-21T19:22:18.410Z,11.05
2022-10-21T19:25:23.724Z,11.02
2022-10-21T19:28:26.633Z,11.00
2022-10-21T19:31:31.444Z,10.97
2022-10-21T19:34:36.606Z,10.95
2022-10-21T19:37:40.158Z,10.93
2022-10-21T19:40:43.175Z,10.92
2022-10-21T19:44:00.440Z,10.90
2022-10-21T19:47:03.358Z,10.88
2022-10-21T19:50:07.035Z,10.87
2022-10-21T19:53:09.983Z,10.86
2022-10-21T19:56:14.168Z,10.84
2022-10-21T20:02:20.839Z,10.82
2022-10-21T20:05:23.863Z,10.81
2022-10-21T20:11:35.040Z,10.80
2022-10-21T20:14:38.217Z,10.78
2022-10-21T20:17:41.468Z,10.78
2022-10-21T20:20:44.513Z,10.77
2022-10-21T20:23:51.756Z,10.77
2022-10-21T20:26:58.369Z,10.77
2022-10-21T20:30:04.970Z,10.76
2022-10-21T20:33:10.492Z,10.76
2022-10-21T20:36:34.055Z,10.76
2022-10-21T20:39:37.291Z,10.76
2022-10-21T20:42:40.500Z,10.75
2022-10-21T20:45:43.876Z,10.75
2022-10-21T20:48:49.250Z,10.76
2022-10-21T20:51:52.149Z,10.76
2022-10-21T20:58:13.468Z,10.77
2022-10-21T21:01:20.325Z,10.77
2022-10-21T21:04:25.379Z,10.78
2022-10-21T21:07:28.292Z,10.79
2022-10-21T21:10:34.919Z,10.80
2022-10-21T21:13:41.997Z,10.81
2022-10-21T21:16:47.463Z,10.82
2022-10-21T21:19:50.537Z,10.82
2022-10-21T21:22:53.430Z,10.82
2022-10-21T21:26:26.971Z,10.83
2022-10-21T21:29:31.906Z,10.84
2022-10-21T21:32:34.977Z,10.83
2022-10-21T21:35:38.101Z,10.84
2022-10-21T21:38:41.924Z,10.84
2022-10-21T21:41:44.833Z,10.84
2022-10-21T21:44:47.782Z,10.85
2022-10-21T21:47:50.652Z,10.85
2022-10-21T21:51:09.684Z,10.85
2022-10-21T21:54:12.601Z,10.86
2022-10-21T21:57:27.381Z,10.86
2022-10-21T22:00:31.638Z,10.86
2022-10-21T22:03:34.567Z,10.87
2022-10-21T22:06:38.535Z,10.87
2022-10-21T22:09:41.493Z,10.88
2022-10-21T22:12:44.979Z,10.88
2022-10-21T22:15:48.604Z,10.89
2022-10-21T22:18:51.914Z,10.89
2022-10-21T22:21:54.838Z,10.89
2022-10-21T22:24:57.636Z,10.89
2022-10-21T22:28:00.470Z,10.89
2022-10-21T22:31:07.083Z,10.89
2022-10-21T22:34:11.894Z,10.89
2022-10-21T22:37:15.054Z,10.89
2022-10-21T22:40:17.945Z,10.88
2022-10-21T22:43:20.961Z,10.89
2022-10-21T22:46:39.403Z,10.89
2022-10-21T22:49:43.729Z,10.90
2022-10-21T22:52:47.255Z,10.90
2022-10-21T22:55:50.434Z,10.91
2022-10-21T22:58:53.973Z,10.91
2022-10-21T23:01:56.819Z,10.92
2022-10-21T23:04:59.867Z,10.93
2022-10-21T23:08:02.762Z,10.93
2022-10-21T23:11:05.788Z,10.94
2022-10-21T23:14:09.601Z,10.94
2022-10-21T23:17:12.497Z,10.94
2022-10-21T23:20:15.475Z,10.95
2022-10-21T23:23:18.415Z,10.95
2022-10-21T23:26:21.540Z,10.95
2022-10-21T23:29:24.439Z,10.95
2022-10-21T23:32:29.511Z,10.96
2022-10-21T23:35:32.824Z,10.96
2022-10-21T23:38:35.694Z,10.95
2022-10-21T23:41:38.551Z,10.96
2022-10-21T23:44:41.585Z,10.95
2022-10-21T23:47:44.590Z,10.96
2022-10-21T23:50:47.612Z,10.95
2022-10-21T23:53:50.562Z,10.95
2022-10-21T23:56:53.467Z,10.95
2022-10-21T23:59:56.400Z,10.95
